sensor_id;sensor_type;location;lat;lon;timestamp;pressure;altitude;pressure_sealevel;temperature;humidity
28588;BME280;15787;49.662;10.162;2023-03-16T00:01:40;99648.03;;;-1.08;100.00
28588;BME280;15787;49.662;10.162;2023-03-16T00:04:13;99648.63;;;-1.02;100.00
28588;BME280;15787;49.662;10.162;2023-03-16T00:06:46;99657.22;;;-1.24;100.00
28588;BME280;15787;49.662;10.162;2023-03-16T00:09:19;99669.88;;;-1.32;100.00
28588;BME280;15787;49.662;10.162;2023-03-16T00:11:53;99646.03;;;-0.87;100.00
28588;BME280;15787;49.662;10.162;2023-03-16T00:14:26;99655.00;;;-1.10;100.00
28588;BME280;15787;49.662;10.162;2023-03-16T00:16:59;99657.56;;;-0.81;100.00
28588;BME280;15787;49.662;10.162;2023-03-16T00:19:32;99652.31;;;-0.74;100.00
28588;BME280;15787;49.662;10.162;2023-03-16T00:22:05;99652.78;;;-0.48;100.00
28588;BME280;15787;49.662;10.162;2023-03-16T00:24:39;99650.84;;;-0.47;100.00
28588;BME280;15787;49.662;10.162;2023-03-16T00:27:15;99658.03;;;-1.24;100.00
28588;BME280;15787;49.662;10.162;2023-03-16T00:29:50;99651.75;;;-0.68;100.00
28588;BME280;15787;49.662;10.162;2023-03-16T00:32:28;99650.84;;;-0.72;100.00
28588;BME280;15787;49.662;10.162;2023-03-16T00:35:04;99650.44;;;-1.06;100.00
28588;BME280;15787;49.662;10.162;2023-03-16T00:37:40;99654.91;;;-1.35;100.00
28588;BME280;15787;49.662;10.162;2023-03-16T00:40:14;99650.16;;;-0.44;100.00
28588;BME280;15787;49.662;10.162;2023-03-16T00:42:49;99657.00;;;-0.26;100.00
28588;BME280;15787;49.662;10.162;2023-03-16T00:45:22;99662.56;;;-0.95;100.00
28588;BME280;15787;49.662;10.162;2023-03-16T00:47:55;99661.97;;;-1.46;100.00
28588;BME280;15787;49.662;10.162;2023-03-16T00:50:28;99657.00;;;-0.75;100.00
28588;BME280;15787;49.662;10.162;2023-03-16T00:53:01;99652.06;;;-0.81;100.00
28588;BME280;15787;49.662;10.162;2023-03-16T00:55:34;99653.44;;;-0.87;100.00
28588;BME280;15787;49.662;10.162;2023-03-16T00:58:09;99649.78;;;-0.43;100.00
28588;BME280;15787;49.662;10.162;2023-03-16T01:00:45;99654.13;;;-0.30;100.00
28588;BME280;15787;49.662;10.162;2023-03-16T01:03:20;99658.28;;;-0.36;100.00
28588;BME280;15787;49.662;10.162;2023-03-16T01:05:53;99653.69;;;-0.44;100.00
28588;BME280;15787;49.662;10.162;2023-03-16T01:08:30;99659.41;;;-0.49;99.56
28588;BME280;15787;49.662;10.162;2023-03-16T01:11:07;99661.25;;;-0.29;98.55
28588;BME280;15787;49.662;10.162;2023-03-16T01:13:42;99669.38;;;-0.56;97.21
28588;BME280;15787;49.662;10.162;2023-03-16T01:16:17;99674.44;;;-0.91;98.02
28588;BME280;15787;49.662;10.162;2023-03-16T01:18:53;99667.84;;;-0.66;97.90
28588;BME280;15787;49.662;10.162;2023-03-16T01:21:27;99660.56;;;-0.62;98.11
28588;BME280;15787;49.662;10.162;2023-03-16T01:24:00;99660.66;;;-0.71;97.31
28588;BME280;15787;49.662;10.162;2023-03-16T01:26:35;99659.88;;;-0.59;96.96
28588;BME280;15787;49.662;10.162;2023-03-16T01:29:10;99658.13;;;-0.76;96.37
28588;BME280;15787;49.662;10.162;2023-03-16T01:31:43;99656.28;;;-0.84;96.37
28588;BME280;15787;49.662;10.162;2023-03-16T01:34:17;99650.94;;;-0.68;96.77
28588;BME280;15787;49.662;10.162;2023-03-16T01:36:51;99656.66;;;-0.61;96.30
28588;BME280;15787;49.662;10.162;2023-03-16T01:39:31;99655.63;;;-0.69;96.29
28588;BME280;15787;49.662;10.162;2023-03-16T01:42:04;99652.19;;;-0.78;95.66
28588;BME280;15787;49.662;10.162;2023-03-16T01:44:52;99659.16;;;-0.80;95.19
28588;BME280;15787;49.662;10.162;2023-03-16T01:47:30;99657.00;;;-0.75;95.50
28588;BME280;15787;49.662;10.162;2023-03-16T01:50:09;99664.75;;;-0.89;95.71
28588;BME280;15787;49.662;10.162;2023-03-16T01:52:44;99646.81;;;-0.86;96.00
28588;BME280;15787;49.662;10.162;2023-03-16T01:55:17;99651.06;;;-0.65;95.96
28588;BME280;15787;49.662;10.162;2023-03-16T01:57:50;99652.78;;;-0.72;95.40
28588;BME280;15787;49.662;10.162;2023-03-16T02:00:25;99655.13;;;-1.07;95.75
28588;BME280;15787;49.662;10.162;2023-03-16T02:03:20;99652.66;;;-0.88;95.82
28588;BME280;15787;49.662;10.162;2023-03-16T02:06:00;99658.47;;;-0.89;95.89
28588;BME280;15787;49.662;10.162;2023-03-16T02:08:38;99654.25;;;-0.87;95.62
28588;BME280;15787;49.662;10.162;2023-03-16T02:11:13;99646.56;;;-1.05;96.12
28588;BME280;15787;49.662;10.162;2023-03-16T02:14:07;99656.94;;;-1.11;95.38
28588;BME280;15787;49.662;10.162;2023-03-16T02:16:42;99646.34;;;-0.88;95.37
28588;BME280;15787;49.662;10.162;2023-03-16T02:19:21;99637.34;;;-1.34;95.26
28588;BME280;15787;49.662;10.162;2023-03-16T02:22:01;99638.84;;;-2.10;97.08
28588;BME280;15787;49.662;10.162;2023-03-16T02:24:35;99630.41;;;-1.19;98.26
28588;BME280;15787;49.662;10.162;2023-03-16T02:27:09;99632.47;;;-1.28;97.45
28588;BME280;15787;49.662;10.162;2023-03-16T02:29:56;99627.00;;;-1.61;97.27
28588;BME280;15787;49.662;10.162;2023-03-16T02:32:37;99614.00;;;-2.05;98.47
28588;BME280;15787;49.662;10.162;2023-03-16T02:35:11;99607.88;;;-2.23;100.00
28588;BME280;15787;49.662;10.162;2023-03-16T02:37:45;99607.03;;;-1.61;100.00
28588;BME280;15787;49.662;10.162;2023-03-16T02:40:23;99601.03;;;-1.75;100.00
28588;BME280;15787;49.662;10.162;2023-03-16T02:43:02;99605.94;;;-2.22;100.00
28588;BME280;15787;49.662;10.162;2023-03-16T02:45:42;99597.16;;;-2.36;100.00
28588;BME280;15787;49.662;10.162;2023-03-16T02:48:20;99589.97;;;-2.41;100.00
28588;BME280;15787;49.662;10.162;2023-03-16T02:50:54;99596.72;;;-2.18;100.00
28588;BME280;15787;49.662;10.162;2023-03-16T02:53:30;99598.53;;;-2.42;100.00
28588;BME280;15787;49.662;10.162;2023-03-16T02:56:05;99599.22;;;-2.54;100.00
28588;BME280;15787;49.662;10.162;2023-03-16T02:58:40;99601.41;;;-2.68;100.00
28588;BME280;15787;49.662;10.162;2023-03-16T03:01:19;99613.75;;;-2.12;100.00
28588;BME280;15787;49.662;10.162;2023-03-16T03:03:52;99613.72;;;-1.71;100.00
28588;BME280;15787;49.662;10.162;2023-03-16T03:06:25;99619.31;;;-1.67;100.00
28588;BME280;15787;49.662;10.162;2023-03-16T03:08:59;99615.72;;;-1.47;100.00
28588;BME280;15787;49.662;10.162;2023-03-16T03:11:33;99616.31;;;-1.74;100.00
28588;BME280;15787;49.662;10.162;2023-03-16T03:14:06;99621.69;;;-1.45;100.00
28588;BME280;15787;49.662;10.162;2023-03-16T03:16:43;99631.03;;;-1.79;99.84
28588;BME280;15787;49.662;10.162;2023-03-16T03:19:19;99624.75;;;-1.47;100.00
28588;BME280;15787;49.662;10.162;2023-03-16T03:21:54;99626.16;;;-1.41;98.99
28588;BME280;15787;49.662;10.162;2023-03-16T03:24:27;99614.13;;;-1.60;97.95
28588;BME280;15787;49.662;10.162;2023-03-16T03:27:01;99611.13;;;-2.50;99.22
28588;BME280;15787;49.662;10.162;2023-03-16T03:29:39;99611.06;;;-2.21;99.72
28588;BME280;15787;49.662;10.162;2023-03-16T03:32:13;99611.22;;;-2.17;100.00
28588;BME280;15787;49.662;10.162;2023-03-16T03:34:46;99612.13;;;-2.34;100.00
28588;BME280;15787;49.662;10.162;2023-03-16T03:37:19;99613.47;;;-2.40;100.00
28588;BME280;15787;49.662;10.162;2023-03-16T03:39:53;99602.88;;;-1.67;100.00
28588;BME280;15787;49.662;10.162;2023-03-16T03:42:26;99607.00;;;-2.15;100.00
28588;BME280;15787;49.662;10.162;2023-03-16T03:44:59;99601.28;;;-2.01;100.00
28588;BME280;15787;49.662;10.162;2023-03-16T03:47:34;99600.06;;;-1.92;100.00
28588;BME280;15787;49.662;10.162;2023-03-16T03:50:10;99605.53;;;-1.92;100.00
28588;BME280;15787;49.662;10.162;2023-03-16T03:52:55;99595.38;;;-1.70;99.05
28588;BME280;15787;49.662;10.162;2023-03-16T03:55:31;99603.28;;;-2.60;99.81
28588;BME280;15787;49.662;10.162;2023-03-16T03:58:04;99607.31;;;-1.96;100.00
28588;BME280;15787;49.662;10.162;2023-03-16T04:00:39;99597.47;;;-1.55;98.67
28588;BME280;15787;49.662;10.162;2023-03-16T04:03:13;99603.31;;;-1.77;97.34
28588;BME280;15787;49.662;10.162;2023-03-16T04:05:49;99592.81;;;-1.75;96.25
28588;BME280;15787;49.662;10.162;2023-03-16T04:08:22;99594.84;;;-1.84;96.10
28588;BME280;15787;49.662;10.162;2023-03-16T04:10:55;99597.13;;;-2.07;95.40
28588;BME280;15787;49.662;10.162;2023-03-16T04:13:29;99587.00;;;-2.27;97.27
28588;BME280;15787;49.662;10.162;2023-03-16T04:16:02;99587.63;;;-2.51;97.86
28588;BME280;15787;49.662;10.162;2023-03-16T04:18:46;99585.13;;;-2.35;97.71
28588;BME280;15787;49.662;10.162;2023-03-16T04:21:19;99582.03;;;-2.13;98.67
28588;BME280;15787;49.662;10.162;2023-03-16T04:23:53;99585.44;;;-1.96;98.78
28588;BME280;15787;49.662;10.162;2023-03-16T04:26:33;99580.00;;;-2.16;97.83
28588;BME280;15787;49.662;10.162;2023-03-16T04:29:08;99578.44;;;-2.26;98.79
28588;BME280;15787;49.662;10.162;2023-03-16T04:31:41;99584.09;;;-2.51;98.94
28588;BME280;15787;49.662;10.162;2023-03-16T04:34:15;99578.94;;;-2.24;99.12
28588;BME280;15787;49.662;10.162;2023-03-16T04:36:49;99585.88;;;-2.26;98.63
28588;BME280;15787;49.662;10.162;2023-03-16T04:39:23;99581.00;;;-1.88;97.67
28588;BME280;15787;49.662;10.162;2023-03-16T04:41:57;99577.50;;;-2.50;98.34
28588;BME280;15787;49.662;10.162;2023-03-16T04:44:32;99585.56;;;-1.92;97.40
28588;BME280;15787;49.662;10.162;2023-03-16T04:47:06;99585.38;;;-2.08;96.63
28588;BME280;15787;49.662;10.162;2023-03-16T04:49:43;99585.56;;;-1.92;95.87
28588;BME280;15787;49.662;10.162;2023-03-16T04:52:16;99584.25;;;-1.86;95.55
28588;BME280;15787;49.662;10.162;2023-03-16T04:54:50;99578.94;;;-2.24;95.57
28588;BME280;15787;49.662;10.162;2023-03-16T04:57:23;99583.38;;;-2.19;96.37
28588;BME280;15787;49.662;10.162;2023-03-16T04:59:57;99578.56;;;-2.02;95.09
28588;BME280;15787;49.662;10.162;2023-03-16T05:02:41;99589.78;;;-2.15;94.14
28588;BME280;15787;49.662;10.162;2023-03-16T05:05:16;99591.91;;;-2.21;93.45
28588;BME280;15787;49.662;10.162;2023-03-16T05:07:49;99591.81;;;-2.24;92.87
28588;BME280;15787;49.662;10.162;2023-03-16T05:10:23;99592.25;;;-2.43;92.87
28588;BME280;15787;49.662;10.162;2023-03-16T05:12:56;99586.09;;;-2.61;93.22
28588;BME280;15787;49.662;10.162;2023-03-16T05:15:31;99583.44;;;-2.48;92.66
28588;BME280;15787;49.662;10.162;2023-03-16T05:18:20;99580.97;;;-2.41;92.73
28588;BME280;15787;49.662;10.162;2023-03-16T05:20:55;99585.16;;;-2.44;92.89
28588;BME280;15787;49.662;10.162;2023-03-16T05:23:35;99579.28;;;-2.34;92.99
28588;BME280;15787;49.662;10.162;2023-03-16T05:26:08;99579.19;;;-2.37;93.18
28588;BME280;15787;49.662;10.162;2023-03-16T05:28:42;99573.78;;;-2.25;93.47
28588;BME280;15787;49.662;10.162;2023-03-16T05:31:18;99579.03;;;-2.41;93.36
28588;BME280;15787;49.662;10.162;2023-03-16T05:33:55;99583.09;;;-2.68;94.34
28588;BME280;15787;49.662;10.162;2023-03-16T05:36:30;99575.28;;;-2.36;94.60
28588;BME280;15787;49.662;10.162;2023-03-16T05:39:09;99571.19;;;-2.22;94.64
28588;BME280;15787;49.662;10.162;2023-03-16T05:41:47;99575.31;;;-2.86;95.11
28588;BME280;15787;49.662;10.162;2023-03-16T05:44:38;99570.09;;;-2.50;96.54
28588;BME280;15787;49.662;10.162;2023-03-16T05:47:17;99572.84;;;-2.29;95.83
28588;BME280;15787;49.662;10.162;2023-03-16T05:49:56;99576.19;;;-2.24;94.89
28588;BME280;15787;49.662;10.162;2023-03-16T05:52:41;99590.94;;;-2.16;94.46
28588;BME280;15787;49.662;10.162;2023-03-16T05:55:22;99586.03;;;-2.31;94.08
28588;BME280;15787;49.662;10.162;2023-03-16T05:58:00;99590.84;;;-2.28;93.83
28588;BME280;15787;49.662;10.162;2023-03-16T06:00:38;99599.53;;;-2.26;93.54
28588;BME280;15787;49.662;10.162;2023-03-16T06:03:25;99594.75;;;-2.59;92.79
28588;BME280;15787;49.662;10.162;2023-03-16T06:05:59;99596.78;;;-2.47;92.80
28588;BME280;15787;49.662;10.162;2023-03-16T06:08:39;99593.84;;;-2.42;93.84
28588;BME280;15787;49.662;10.162;2023-03-16T06:11:15;99590.34;;;-2.51;93.88
28588;BME280;15787;49.662;10.162;2023-03-16T06:13:49;99584.09;;;-2.10;93.65
28588;BME280;15787;49.662;10.162;2023-03-16T06:16:22;99587.44;;;-2.25;93.74
28588;BME280;15787;49.662;10.162;2023-03-16T06:18:56;99586.13;;;-1.99;93.33
28588;BME280;15787;49.662;10.162;2023-03-16T06:21:32;99582.59;;;-1.99;93.25
28588;BME280;15787;49.662;10.162;2023-03-16T06:24:15;99592.72;;;-2.20;94.01
28588;BME280;15787;49.662;10.162;2023-03-16T06:26:48;99597.66;;;-2.34;95.77
28588;BME280;15787;49.662;10.162;2023-03-16T06:29:23;99592.06;;;-2.17;97.56
28588;BME280;15787;49.662;10.162;2023-03-16T06:31:56;99591.25;;;-1.97;97.41
28588;BME280;15787;49.662;10.162;2023-03-16T06:34:30;99585.41;;;-1.75;97.02
28588;BME280;15787;49.662;10.162;2023-03-16T06:37:03;99586.34;;;-1.71;96.48
28588;BME280;15787;49.662;10.162;2023-03-16T06:39:38;99590.53;;;-1.53;96.11
28588;BME280;15787;49.662;10.162;2023-03-16T06:42:11;99584.69;;;-1.51;95.41
28588;BME280;15787;49.662;10.162;2023-03-16T06:44:44;99585.81;;;-1.52;95.03
28588;BME280;15787;49.662;10.162;2023-03-16T06:47:18;99585.94;;;-1.49;94.92
28588;BME280;15787;49.662;10.162;2023-03-16T06:49:51;99601.59;;;-1.49;94.92
28588;BME280;15787;49.662;10.162;2023-03-16T06:52:28;99598.41;;;-1.39;95.05
28588;BME280;15787;49.662;10.162;2023-03-16T06:55:05;99594.19;;;-1.37;94.83
28588;BME280;15787;49.662;10.162;2023-03-16T06:57:41;99595.81;;;-1.36;95.95
28588;BME280;15787;49.662;10.162;2023-03-16T07:00:15;99601.53;;;-1.16;96.27
28588;BME280;15787;49.662;10.162;2023-03-16T07:02:49;99591.97;;;-0.98;96.34
28588;BME280;15787;49.662;10.162;2023-03-16T07:05:23;99599.41;;;-0.87;96.38
28588;BME280;15787;49.662;10.162;2023-03-16T07:07:56;99603.06;;;-1.07;97.27
28588;BME280;15787;49.662;10.162;2023-03-16T07:10:31;99603.06;;;-0.71;97.63
28588;BME280;15787;49.662;10.162;2023-03-16T07:13:05;99606.03;;;-0.76;98.04
28588;BME280;15787;49.662;10.162;2023-03-16T07:15:38;99605.47;;;-0.57;98.91
28588;BME280;15787;49.662;10.162;2023-03-16T07:18:11;99610.03;;;-0.49;100.00
28588;BME280;15787;49.662;10.162;2023-03-16T07:20:44;99602.34;;;-0.19;100.00
28588;BME280;15787;49.662;10.162;2023-03-16T07:23:18;99603.53;;;-0.05;100.00
28588;BME280;15787;49.662;10.162;2023-03-16T07:25:52;99602.81;;;0.11;100.00
28588;BME280;15787;49.662;10.162;2023-03-16T07:28:26;99586.94;;;0.32;100.00
28588;BME280;15787;49.662;10.162;2023-03-16T07:31:02;99589.31;;;0.45;100.00
28588;BME280;15787;49.662;10.162;2023-03-16T07:33:41;99600.13;;;0.54;100.00
28588;BME280;15787;49.662;10.162;2023-03-16T07:36:19;99601.69;;;0.98;100.00
28588;BME280;15787;49.662;10.162;2023-03-16T07:38:58;99587.25;;;1.01;100.00
28588;BME280;15787;49.662;10.162;2023-03-16T07:41:33;99587.59;;;1.31;100.00
28588;BME280;15787;49.662;10.162;2023-03-16T07:44:18;99581.84;;;1.55;100.00
28588;BME280;15787;49.662;10.162;2023-03-16T07:46:53;99587.31;;;1.71;100.00
28588;BME280;15787;49.662;10.162;2023-03-16T07:49:29;99581.00;;;2.05;100.00
28588;BME280;15787;49.662;10.162;2023-03-16T07:52:04;99584.69;;;1.93;100.00
28588;BME280;15787;49.662;10.162;2023-03-16T07:54:42;99590.94;;;2.10;100.00
28588;BME280;15787;49.662;10.162;2023-03-16T07:57:18;99589.41;;;2.12;100.00
28588;BME280;15787;49.662;10.162;2023-03-16T07:59:53;99591.88;;;2.55;100.00
28588;BME280;15787;49.662;10.162;2023-03-16T08:02:25;99585.59;;;2.36;100.00
28588;BME280;15787;49.662;10.162;2023-03-16T08:04:59;99585.50;;;2.51;99.35
28588;BME280;15787;49.662;10.162;2023-03-16T08:07:32;99584.97;;;3.10;97.51
28588;BME280;15787;49.662;10.162;2023-03-16T08:10:12;99580.03;;;3.19;95.62
28588;BME280;15787;49.662;10.162;2023-03-16T08:12:56;99589.34;;;3.11;92.94
28588;BME280;15787;49.662;10.162;2023-03-16T08:15:29;99590.16;;;3.38;92.44
28588;BME280;15787;49.662;10.162;2023-03-16T08:18:12;99595.34;;;3.40;91.29
28588;BME280;15787;49.662;10.162;2023-03-16T08:20:48;99588.72;;;3.70;89.88
28588;BME280;15787;49.662;10.162;2023-03-16T08:23:21;99602.50;;;3.97;90.54
28588;BME280;15787;49.662;10.162;2023-03-16T08:25:56;99593.13;;;4.05;89.45
28588;BME280;15787;49.662;10.162;2023-03-16T08:28:31;99588.69;;;4.26;88.82
28588;BME280;15787;49.662;10.162;2023-03-16T08:31:09;99592.13;;;4.50;87.06
28588;BME280;15787;49.662;10.162;2023-03-16T08:34:02;99585.69;;;4.38;87.06
28588;BME280;15787;49.662;10.162;2023-03-16T08:36:40;99592.34;;;4.34;85.23
28588;BME280;15787;49.662;10.162;2023-03-16T08:39:16;99590.47;;;4.41;84.85
28588;BME280;15787;49.662;10.162;2023-03-16T08:41:51;99598.19;;;4.29;83.81
28588;BME280;15787;49.662;10.162;2023-03-16T08:44:34;99583.38;;;4.81;84.31
28588;BME280;15787;49.662;10.162;2023-03-16T08:47:08;99597.25;;;4.84;83.57
28588;BME280;15787;49.662;10.162;2023-03-16T08:49:41;99599.38;;;4.98;83.03
28588;BME280;15787;49.662;10.162;2023-03-16T08:52:18;99603.66;;;4.92;82.62
28588;BME280;15787;49.662;10.162;2023-03-16T08:54:52;99601.38;;;5.01;80.99
28588;BME280;15787;49.662;10.162;2023-03-16T08:57:33;99598.25;;;5.06;80.36
28588;BME280;15787;49.662;10.162;2023-03-16T09:00:09;99593.16;;;5.55;80.21
28588;BME280;15787;49.662;10.162;2023-03-16T09:02:44;99596.13;;;5.84;81.35
28588;BME280;15787;49.662;10.162;2023-03-16T09:05:18;99614.06;;;5.97;78.35
28588;BME280;15787;49.662;10.162;2023-03-16T09:07:51;99601.91;;;5.64;77.65
28588;BME280;15787;49.662;10.162;2023-03-16T09:10:25;99598.38;;;5.64;78.68
28588;BME280;15787;49.662;10.162;2023-03-16T09:12:58;99593.63;;;5.17;77.93
28588;BME280;15787;49.662;10.162;2023-03-16T09:15:33;99596.81;;;5.70;78.92
28588;BME280;15787;49.662;10.162;2023-03-16T09:18:06;99589.13;;;6.00;78.51
28588;BME280;15787;49.662;10.162;2023-03-16T09:20:41;99590.13;;;5.74;77.44
28588;BME280;15787;49.662;10.162;2023-03-16T09:23:14;99590.88;;;6.33;76.44
28588;BME280;15787;49.662;10.162;2023-03-16T09:25:47;99594.34;;;6.16;75.88
28588;BME280;15787;49.662;10.162;2023-03-16T09:28:21;99590.88;;;6.33;75.77
28588;BME280;15787;49.662;10.162;2023-03-16T09:30:57;99583.84;;;6.53;77.12
28588;BME280;15787;49.662;10.162;2023-03-16T09:33:31;99575.41;;;6.32;76.61
28588;BME280;15787;49.662;10.162;2023-03-16T09:36:04;99579.38;;;6.27;74.97
28588;BME280;15787;49.662;10.162;2023-03-16T09:38:37;99580.41;;;5.98;75.20
28588;BME280;15787;49.662;10.162;2023-03-16T09:41:25;99580.19;;;6.38;75.68
28588;BME280;15787;49.662;10.162;2023-03-16T09:44:09;99576.28;;;6.50;74.83
28588;BME280;15787;49.662;10.162;2023-03-16T09:46:50;99569.25;;;6.95;74.79
28588;BME280;15787;49.662;10.162;2023-03-16T09:49:26;99564.84;;;6.66;73.77
28588;BME280;15787;49.662;10.162;2023-03-16T09:52:11;99551.44;;;7.42;75.26
28588;BME280;15787;49.662;10.162;2023-03-16T09:54:51;99552.59;;;7.02;73.96
28588;BME280;15787;49.662;10.162;2023-03-16T09:57:29;99554.19;;;6.92;73.29
28588;BME280;15787;49.662;10.162;2023-03-16T10:00:14;99552.16;;;6.65;74.12
28588;BME280;15787;49.662;10.162;2023-03-16T10:02:59;99544.63;;;6.65;74.53
28588;BME280;15787;49.662;10.162;2023-03-16T10:05:36;99541.09;;;7.53;73.63
28588;BME280;15787;49.662;10.162;2023-03-16T10:08:13;99539.53;;;7.20;71.33
28588;BME280;15787;49.662;10.162;2023-03-16T10:11:14;99531.50;;;7.86;72.21
28588;BME280;15787;49.662;10.162;2023-03-16T10:13:53;99535.53;;;7.56;70.74
28588;BME280;15787;49.662;10.162;2023-03-16T10:16:32;99525.09;;;8.10;71.29
28588;BME280;15787;49.662;10.162;2023-03-16T10:19:12;99525.03;;;8.17;70.72
28588;BME280;15787;49.662;10.162;2023-03-16T10:21:48;99523.97;;;7.86;68.59
28588;BME280;15787;49.662;10.162;2023-03-16T10:24:31;99527.22;;;7.49;68.56
28588;BME280;15787;49.662;10.162;2023-03-16T10:27:15;99518.44;;;7.72;68.92
28588;BME280;15787;49.662;10.162;2023-03-16T10:29:51;99514.78;;;8.03;70.14
28588;BME280;15787;49.662;10.162;2023-03-16T10:32:24;99504.72;;;8.34;69.81
28588;BME280;15787;49.662;10.162;2023-03-16T10:35:09;99502.09;;;8.78;69.31
28588;BME280;15787;49.662;10.162;2023-03-16T10:37:46;99501.56;;;8.36;66.01
28588;BME280;15787;49.662;10.162;2023-03-16T10:40:20;99509.81;;;8.53;67.67
28588;BME280;15787;49.662;10.162;2023-03-16T10:42:53;99499.91;;;8.42;65.64
28588;BME280;15787;49.662;10.162;2023-03-16T10:45:29;99499.28;;;8.82;65.09
28588;BME280;15787;49.662;10.162;2023-03-16T10:48:07;99502.25;;;9.09;64.55
28588;BME280;15787;49.662;10.162;2023-03-16T10:50:42;99503.28;;;8.77;62.94
28588;BME280;15787;49.662;10.162;2023-03-16T10:53:19;99490.16;;;8.78;63.82
28588;BME280;15787;49.662;10.162;2023-03-16T10:55:56;99487.00;;;8.76;62.92
28588;BME280;15787;49.662;10.162;2023-03-16T10:58:32;99489.97;;;8.44;63.36
28588;BME280;15787;49.662;10.162;2023-03-16T11:01:09;99488.59;;;8.77;63.76
28588;BME280;15787;49.662;10.162;2023-03-16T11:03:47;99486.19;;;8.75;63.76
28588;BME280;15787;49.662;10.162;2023-03-16T11:06:24;99488.97;;;8.75;62.42
28588;BME280;15787;49.662;10.162;2023-03-16T11:09:03;99498.69;;;9.08;63.70
28588;BME280;15787;49.662;10.162;2023-03-16T11:11:46;99483.41;;;8.79;62.95
28588;BME280;15787;49.662;10.162;2023-03-16T11:14:20;99482.97;;;9.28;63.56
28588;BME280;15787;49.662;10.162;2023-03-16T11:16:59;99487.88;;;9.95;61.74
28588;BME280;15787;49.662;10.162;2023-03-16T11:19:35;99485.28;;;8.93;60.20
28588;BME280;15787;49.662;10.162;2023-03-16T11:22:12;99489.50;;;9.15;60.95
28588;BME280;15787;49.662;10.162;2023-03-16T11:24:49;99487.19;;;9.47;60.97
28588;BME280;15787;49.662;10.162;2023-03-16T11:27:29;99491.13;;;9.05;61.00
28588;BME280;15787;49.662;10.162;2023-03-16T11:30:11;99481.88;;;9.63;59.62
28588;BME280;15787;49.662;10.162;2023-03-16T11:32:48;99483.09;;;9.96;60.76
28588;BME280;15787;49.662;10.162;2023-03-16T11:35:29;99479.06;;;9.63;61.07
28588;BME280;15787;49.662;10.162;2023-03-16T11:38:14;99468.44;;;9.51;61.87
28588;BME280;15787;49.662;10.162;2023-03-16T11:40:54;99465.34;;;9.42;62.42
28588;BME280;15787;49.662;10.162;2023-03-16T11:43:48;99459.31;;;9.84;62.61
28588;BME280;15787;49.662;10.162;2023-03-16T11:46:24;99464.56;;;9.79;60.43
28588;BME280;15787;49.662;10.162;2023-03-16T11:49:16;99457.19;;;10.29;60.49
28588;BME280;15787;49.662;10.162;2023-03-16T11:52:00;99453.13;;;9.29;59.14
28588;BME280;15787;49.662;10.162;2023-03-16T11:54:51;99447.38;;;9.84;60.06
28588;BME280;15787;49.662;10.162;2023-03-16T11:57:37;99449.88;;;9.37;59.67
28588;BME280;15787;49.662;10.162;2023-03-16T12:00:26;99446.53;;;9.87;59.01
28588;BME280;15787;49.662;10.162;2023-03-16T12:03:38;99429.09;;;10.13;59.95
28588;BME280;15787;49.662;10.162;2023-03-16T12:06:22;99427.47;;;10.15;58.23
28588;BME280;15787;49.662;10.162;2023-03-16T12:09:18;99421.03;;;9.88;58.15
28588;BME280;15787;49.662;10.162;2023-03-16T12:12:04;99429.25;;;9.99;59.25
28588;BME280;15787;49.662;10.162;2023-03-16T12:14:46;99426.25;;;10.17;58.64
28588;BME280;15787;49.662;10.162;2023-03-16T12:17:25;99425.84;;;9.84;57.37
28588;BME280;15787;49.662;10.162;2023-03-16T12:20:02;99423.16;;;9.74;57.89
28588;BME280;15787;49.662;10.162;2023-03-16T12:22:38;99424.06;;;10.31;58.25
28588;BME280;15787;49.662;10.162;2023-03-16T12:25:17;99419.31;;;9.94;57.27
28588;BME280;15787;49.662;10.162;2023-03-16T12:27:56;99417.69;;;9.97;57.41
28588;BME280;15787;49.662;10.162;2023-03-16T12:30:38;99430.44;;;9.98;56.82
28588;BME280;15787;49.662;10.162;2023-03-16T12:33:23;99410.34;;;10.40;57.47
28588;BME280;15787;49.662;10.162;2023-03-16T12:36:02;99425.41;;;10.20;55.66
28588;BME280;15787;49.662;10.162;2023-03-16T12:38:45;99412.75;;;9.81;56.74
28588;BME280;15787;49.662;10.162;2023-03-16T12:41:25;99405.63;;;10.64;56.80
28588;BME280;15787;49.662;10.162;2023-03-16T12:44:10;99409.38;;;10.54;55.36
28588;BME280;15787;49.662;10.162;2023-03-16T12:46:50;99391.91;;;10.73;55.89
28588;BME280;15787;49.662;10.162;2023-03-16T12:49:31;99391.50;;;10.48;57.10
28588;BME280;15787;49.662;10.162;2023-03-16T12:52:06;99382.25;;;10.54;56.88
28588;BME280;15787;49.662;10.162;2023-03-16T12:54:49;99377.50;;;10.25;56.07
28588;BME280;15787;49.662;10.162;2023-03-16T12:57:24;99370.13;;;10.38;55.24
28588;BME280;15787;49.662;10.162;2023-03-16T12:59:59;99366.34;;;10.74;54.58
28588;BME280;15787;49.662;10.162;2023-03-16T13:02:43;99373.56;;;10.72;55.61
28588;BME280;15787;49.662;10.162;2023-03-16T13:05:18;99378.88;;;10.90;55.94
28588;BME280;15787;49.662;10.162;2023-03-16T13:08:07;99374.13;;;10.37;55.32
28588;BME280;15787;49.662;10.162;2023-03-16T13:10:42;99386.94;;;10.34;54.54
28588;BME280;15787;49.662;10.162;2023-03-16T13:13:16;99385.16;;;10.70;55.63
28588;BME280;15787;49.662;10.162;2023-03-16T13:16:06;99396.16;;;10.01;55.04
28588;BME280;15787;49.662;10.162;2023-03-16T13:18:41;99388.97;;;10.57;56.35
28588;BME280;15787;49.662;10.162;2023-03-16T13:21:17;99389.19;;;10.69;55.60
28588;BME280;15787;49.662;10.162;2023-03-16T13:23:55;99377.28;;;10.89;55.20
28588;BME280;15787;49.662;10.162;2023-03-16T13:26:37;99369.44;;;11.46;54.10
28588;BME280;15787;49.662;10.162;2023-03-16T13:29:19;99366.88;;;11.12;54.44
28588;BME280;15787;49.662;10.162;2023-03-16T13:31:57;99364.09;;;10.89;53.64
28588;BME280;15787;49.662;10.162;2023-03-16T13:34:32;99349.28;;;10.92;54.45
28588;BME280;15787;49.662;10.162;2023-03-16T13:37:12;99345.19;;;10.97;55.29
28588;BME280;15787;49.662;10.162;2023-03-16T13:39:51;99344.81;;;11.18;53.93
28588;BME280;15787;49.662;10.162;2023-03-16T13:42:28;99346.22;;;11.49;53.47